createdAt,value
2018-03-15T00:01:59.373Z,69.17
2018-03-15T00:04:34.552Z,69.40
2018-03-15T00:09:49.331Z,69.72
2018-03-15T00:12:18.905Z,69.72
2018-03-15T00:14:48.775Z,69.83
2018-03-15T00:17:19.325Z,69.73
2018-03-15T00:19:49.893Z,69.67
2018-03-15T00:22:19.449Z,69.75
2018-03-15T00:24:48.857Z,69.42
2018-03-15T00:27:17.889Z,69.21
2018-03-15T00:29:47.427Z,69.23
2018-03-15T00:32:17.234Z,68.95
2018-03-15T00:34:46.253Z,68.79
2018-03-15T00:37:16.121Z,68.70
2018-03-15T00:39:45.350Z,68.58
2018-03-15T00:42:15.259Z,68.65
2018-03-15T00:44:44.514Z,68.70
2018-03-15T00:47:13.649Z,68.60
2018-03-15T00:49:42.912Z,68.58
2018-03-15T00:52:11.932Z,68.40
2018-03-15T00:54:40.953Z,68.30
2018-03-15T00:57:10.712Z,68.23
2018-03-15T00:59:39.906Z,68.25
2018-03-15T01:02:08.964Z,68.33
2018-03-15T01:04:37.993Z,68.33
2018-03-15T01:07:07.374Z,68.36
2018-03-15T01:09:36.447Z,68.23
2018-03-15T01:12:05.475Z,68.28
2018-03-15T01:14:34.812Z,68.23
2018-03-15T01:17:04.650Z,68.09
2018-03-15T01:19:33.669Z,67.71
2018-03-15T01:22:02.694Z,67.32
2018-03-15T01:24:31.812Z,66.98
2018-03-15T01:27:01.505Z,66.69
2018-03-15T01:29:30.813Z,67.03
2018-03-15T01:32:00.016Z,66.68
2018-03-15T01:34:29.045Z,67.07
2018-03-15T01:36:58.064Z,67.19
2018-03-15T01:39:27.080Z,67.46
2018-03-15T01:41:56.641Z,67.54
2018-03-15T01:44:26.240Z,67.72
2018-03-15T01:46:55.384Z,67.77
2018-03-15T01:49:25.163Z,67.83
2018-03-15T01:51:54.205Z,68.00
2018-03-15T01:54:23.248Z,68.21
2018-03-15T01:56:53.530Z,68.28
2018-03-15T01:59:22.605Z,68.55
2018-03-15T02:01:51.622Z,68.29
2018-03-15T02:04:21.051Z,68.07
2018-03-15T02:06:50.885Z,67.95
2018-03-15T02:09:20.160Z,67.86
2018-03-15T02:11:49.236Z,67.67
2018-03-15T02:14:18.865Z,67.68
2018-03-15T02:16:48.023Z,67.56
2018-03-15T02:19:17.139Z,67.23
2018-03-15T02:21:46.570Z,67.27
2018-03-15T02:24:15.597Z,67.58
2018-03-15T02:26:44.626Z,67.55
2018-03-15T02:29:13.660Z,67.72
2018-03-15T02:31:42.952Z,67.88
2018-03-15T02:34:12.066Z,67.95
2018-03-15T02:36:42.135Z,67.96
2018-03-15T02:39:11.481Z,67.99
2018-03-15T02:41:40.505Z,68.05
2018-03-15T02:44:10.708Z,67.99
2018-03-15T02:46:40.790Z,68.04
2018-03-15T02:49:09.807Z,68.13
2018-03-15T02:51:38.826Z,68.22
2018-03-15T02:54:08.814Z,68.42
2018-03-15T02:56:37.937Z,67.97
2018-03-15T02:59:07.125Z,68.25
2018-03-15T03:01:36.561Z,68.17
2018-03-15T03:04:05.761Z,68.13
2018-03-15T03:06:35.764Z,68.25
2018-03-15T03:09:05.052Z,68.33
2018-03-15T03:11:34.849Z,67.94
2018-03-15T03:14:03.996Z,67.96
2018-03-15T03:16:34.094Z,68.09
2018-03-15T03:19:03.498Z,68.01
2018-03-15T03:21:33.166Z,67.82
2018-03-15T03:24:02.713Z,67.63
2018-03-15T03:26:31.980Z,67.71
2018-03-15T03:29:01.253Z,67.46
2018-03-15T03:31:30.986Z,67.42
2018-03-15T03:34:00.512Z,67.48
2018-03-15T03:36:30.721Z,67.72
2018-03-15T03:38:59.859Z,67.87
2018-03-15T03:41:28.901Z,68.05
2018-03-15T03:43:58.546Z,68.41
2018-03-15T03:46:27.687Z,68.67
2018-03-15T03:48:57.921Z,68.82
2018-03-15T03:51:27.228Z,68.88
2018-03-15T03:53:56.301Z,68.81
2018-03-15T03:56:26.310Z,68.46
2018-03-15T03:58:56.531Z,68.26
2018-03-15T04:01:26.666Z,68.14
2018-03-15T04:03:55.825Z,67.79
2018-03-15T04:06:25.649Z,67.26
2018-03-15T04:08:54.683Z,67.62
2018-03-15T04:11:23.778Z,67.80
2018-03-15T04:13:52.860Z,67.80
2018-03-15T04:16:21.970Z,67.81
2018-03-15T04:18:51.892Z,67.41
2018-03-15T04:21:21.403Z,67.27
2018-03-15T04:23:50.555Z,66.88
2018-03-15T04:26:19.717Z,67.07
2018-03-15T04:28:49.156Z,67.69
2018-03-15T04:31:18.182Z,67.64
2018-03-15T04:33:47.247Z,67.25
2018-03-15T04:36:16.390Z,67.45
2018-03-15T04:38:45.490Z,67.69
2018-03-15T04:41:14.508Z,67.86
2018-03-15T04:43:43.877Z,68.21
2018-03-15T04:46:12.920Z,68.61
2018-03-15T04:48:42.165Z,68.90
2018-03-15T04:51:11.185Z,68.92
2018-03-15T04:53:40.599Z,68.92
2018-03-15T04:56:10.046Z,68.79
2018-03-15T04:58:39.404Z,68.43
2018-03-15T05:01:08.451Z,68.15
2018-03-15T05:03:37.485Z,68.02
2018-03-15T05:06:06.745Z,68.03
2018-03-15T05:08:36.272Z,67.93
2018-03-15T05:11:06.015Z,68.03
2018-03-15T05:13:35.504Z,68.11
2018-03-15T05:16:04.564Z,68.19
2018-03-15T05:18:33.803Z,68.18
2018-03-15T05:21:04.228Z,68.00
2018-03-15T05:23:34.258Z,68.00
2018-03-15T05:26:03.305Z,68.10
2018-03-15T05:28:32.451Z,68.14
2018-03-15T05:31:02.005Z,67.92
2018-03-15T05:33:31.980Z,67.83
2018-03-15T05:36:02.790Z,67.33
2018-03-15T05:38:32.133Z,67.06
2018-03-15T05:41:01.310Z,67.15
2018-03-15T05:43:31.525Z,66.92
2018-03-15T05:46:01.512Z,66.91
2018-03-15T05:48:31.019Z,66.87
2018-03-15T05:51:00.507Z,67.13
2018-03-15T05:53:29.553Z,67.14
2018-03-15T05:55:58.721Z,66.91
2018-03-15T05:58:28.300Z,66.26
2018-03-15T06:00:57.845Z,66.37
2018-03-15T06:03:27.424Z,66.51
2018-03-15T06:05:56.534Z,66.60
2018-03-15T06:08:25.747Z,66.07
2018-03-15T06:10:54.831Z,66.25
2018-03-15T06:13:24.434Z,66.45
2018-03-15T06:15:54.264Z,66.72
2018-03-15T06:18:23.501Z,66.87
2018-03-15T06:20:53.010Z,66.67
2018-03-15T06:23:22.181Z,66.87
2018-03-15T06:25:51.739Z,67.11
2018-03-15T06:28:20.776Z,67.35
2018-03-15T06:30:49.897Z,66.90
2018-03-15T06:33:18.985Z,66.76
2018-03-15T06:35:48.726Z,66.79
2018-03-15T06:38:17.774Z,66.38
2018-03-15T06:40:46.819Z,66.57
2018-03-15T06:43:16.112Z,66.02
2018-03-15T06:45:45.147Z,66.08
2018-03-15T06:48:14.225Z,66.33
2018-03-15T06:50:43.505Z,66.50
2018-03-15T06:53:12.671Z,66.54
2018-03-15T06:55:41.677Z,66.37
2018-03-15T06:58:10.758Z,66.69
2018-03-15T07:00:39.785Z,66.92
2018-03-15T07:03:08.864Z,66.60
2018-03-15T07:05:38.240Z,66.52
2018-03-15T07:08:07.672Z,66.55
2018-03-15T07:10:37.409Z,66.13
2018-03-15T07:13:06.962Z,66.05
2018-03-15T07:15:36.328Z,65.97
2018-03-15T07:18:06.142Z,65.80
2018-03-15T07:20:35.638Z,65.72
2018-03-15T07:23:04.672Z,65.74
2018-03-15T07:25:33.758Z,65.95
2018-03-15T07:28:04.273Z,66.04
2018-03-15T07:30:34.216Z,65.83
2018-03-15T07:33:03.484Z,65.71
2018-03-15T07:35:32.868Z,65.72
2018-03-15T07:38:01.893Z,65.91
2018-03-15T07:40:31.366Z,66.09
2018-03-15T07:43:00.392Z,66.25
2018-03-15T07:45:30.116Z,66.21
2018-03-15T07:47:59.492Z,66.28
2018-03-15T07:50:29.288Z,66.24
2018-03-15T07:52:58.699Z,66.08
2018-03-15T07:55:28.087Z,66.06
2018-03-15T07:57:57.399Z,65.57
2018-03-15T08:00:26.531Z,65.88
2018-03-15T08:02:55.894Z,65.60
2018-03-15T08:05:25.337Z,65.90
2018-03-15T08:07:54.366Z,66.05
2018-03-15T08:10:24.604Z,66.34
2018-03-15T08:12:53.649Z,66.33
2018-03-15T08:15:22.670Z,65.63
2018-03-15T08:17:51.697Z,65.62
2018-03-15T08:20:21.047Z,65.54
2018-03-15T08:22:51.594Z,65.14
2018-03-15T08:25:20.878Z,65.36
2018-03-15T08:27:51.106Z,65.24
2018-03-15T08:30:20.895Z,65.30
2018-03-15T08:32:51.769Z,65.24
2018-03-15T08:35:21.342Z,65.37
2018-03-15T08:37:51.512Z,65.52
2018-03-15T08:40:20.541Z,65.67
2018-03-15T08:42:49.964Z,65.66
2018-03-15T08:45:19.416Z,65.81
2018-03-15T08:47:48.453Z,65.77
2018-03-15T08:50:18.392Z,65.84
2018-03-15T08:52:47.636Z,65.73
2018-03-15T08:55:17.599Z,65.51
2018-03-15T08:57:46.629Z,65.15
2018-03-15T09:00:16.707Z,65.45
2018-03-15T09:02:45.841Z,65.03
2018-03-15T09:05:16.040Z,65.06
2018-03-15T09:07:45.069Z,65.16
2018-03-15T09:10:15.349Z,65.56
2018-03-15T09:12:45.817Z,65.69
2018-03-15T09:15:15.125Z,65.71
2018-03-15T09:17:45.494Z,65.90
2018-03-15T09:20:15.774Z,65.86
2018-03-15T09:22:44.928Z,65.50
2018-03-15T09:25:14.234Z,65.10
2018-03-15T09:27:44.630Z,65.54
2018-03-15T09:30:13.842Z,65.19
2018-03-15T09:32:43.742Z,65.13
2018-03-15T09:35:13.027Z,65.03
2018-03-15T09:37:42.317Z,65.35
2018-03-15T09:40:11.504Z,65.29
2018-03-15T09:42:40.587Z,65.47
2018-03-15T09:45:09.630Z,65.49
2018-03-15T09:47:38.863Z,65.41
2018-03-15T09:50:08.353Z,65.35
2018-03-15T09:52:37.388Z,65.29
2018-03-15T09:55:06.461Z,65.08
2018-03-15T09:57:36.122Z,65.04
2018-03-15T10:00:05.855Z,64.95
2018-03-15T10:02:34.893Z,64.75
2018-03-15T10:05:03.966Z,64.01
2018-03-15T10:07:33.798Z,63.89
2018-03-15T10:10:02.889Z,63.81
2018-03-15T10:12:32.350Z,63.73
2018-03-15T10:15:02.168Z,63.62
2018-03-15T10:17:31.651Z,63.91
2018-03-15T10:20:00.705Z,63.46
2018-03-15T10:22:30.177Z,63.62
2018-03-15T10:25:01.198Z,63.61
2018-03-15T10:27:30.780Z,63.73
2018-03-15T10:30:00.142Z,63.87
2018-03-15T10:32:29.538Z,64.05
2018-03-15T10:35:04.272Z,64.31
2018-03-15T10:37:33.621Z,64.11
2018-03-15T10:40:03.284Z,63.67
2018-03-15T10:42:33.194Z,64.21
2018-03-15T10:45:02.904Z,64.19
2018-03-15T10:47:31.948Z,64.11
2018-03-15T10:50:01.586Z,63.67
2018-03-15T10:52:30.676Z,64.05
2018-03-15T10:55:00.921Z,63.69
2018-03-15T10:57:30.434Z,63.08
2018-03-15T11:00:00.517Z,63.15
2018-03-15T11:02:35.834Z,63.29
2018-03-15T11:05:05.087Z,63.38
2018-03-15T11:07:42.213Z,63.54
2018-03-15T11:10:12.010Z,63.63
2018-03-15T11:12:42.264Z,64.01
2018-03-15T11:15:12.258Z,64.17
2018-03-15T11:17:41.916Z,64.57
2018-03-15T11:20:12.448Z,64.78
2018-03-15T11:22:41.508Z,64.62
2018-03-15T11:25:10.859Z,64.07
2018-03-15T11:27:39.909Z,64.07
2018-03-15T11:30:11.482Z,63.93
2018-03-15T11:32:40.948Z,63.42
2018-03-15T11:35:10.557Z,62.95
2018-03-15T11:37:39.612Z,63.36
2018-03-15T11:40:09.079Z,63.65
2018-03-15T11:42:39.129Z,63.48
2018-03-15T11:45:08.738Z,63.38
2018-03-15T11:47:38.765Z,63.34
2018-03-15T11:50:08.268Z,63.11
2018-03-15T11:52:38.096Z,63.26
2018-03-15T11:55:07.551Z,63.52
2018-03-15T11:57:36.598Z,63.20
2018-03-15T12:00:05.768Z,63.46
2018-03-15T12:02:35.165Z,63.52
2018-03-15T12:05:04.234Z,63.22
2018-03-15T12:07:34.052Z,63.34
2018-03-15T12:10:03.129Z,63.36
2018-03-15T12:12:32.737Z,63.06
2018-03-15T12:15:01.806Z,62.60
2018-03-15T12:17:31.969Z,62.81
2018-03-15T12:20:01.263Z,63.09
2018-03-15T12:22:30.363Z,63.07
2018-03-15T12:25:00.174Z,62.60
2018-03-15T12:27:29.208Z,63.14
2018-03-15T12:29:59.246Z,63.33
2018-03-15T12:32:28.514Z,63.51
2018-03-15T12:34:58.102Z,63.80
2018-03-15T12:37:27.426Z,63.95
2018-03-15T12:39:56.527Z,64.07
2018-03-15T12:42:26.085Z,64.26
2018-03-15T12:44:55.596Z,64.28
2018-03-15T12:47:24.825Z,63.79
2018-03-15T12:49:53.925Z,64.04
2018-03-15T12:52:23.823Z,64.09
2018-03-15T12:54:52.894Z,63.94
2018-03-15T12:57:22.090Z,63.84
2018-03-15T12:59:51.619Z,63.50
2018-03-15T13:02:20.734Z,63.58
2018-03-15T13:04:51.157Z,63.39
2018-03-15T13:07:20.205Z,63.50
2018-03-15T13:09:49.244Z,63.53
2018-03-15T13:12:18.739Z,63.56
2018-03-15T13:14:47.766Z,63.43
2018-03-15T13:17:17.268Z,62.75
2018-03-15T13:19:57.719Z,62.79
2018-03-15T13:22:39.763Z,62.87
2018-03-15T13:25:27.437Z,62.81
2018-03-15T13:28:07.424Z,62.61
2018-03-15T13:30:38.522Z,63.14
2018-03-15T13:33:08.808Z,63.08
2018-03-15T13:35:38.782Z,63.38
2018-03-15T13:38:07.810Z,63.32
2018-03-15T13:40:36.882Z,63.27
2018-03-15T13:43:06.763Z,63.28
2018-03-15T13:45:37.610Z,63.34
2018-03-15T13:48:06.657Z,63.53
2018-03-15T13:50:36.062Z,63.82
2018-03-15T13:53:05.089Z,63.61
2018-03-15T13:55:34.645Z,63.65
2018-03-15T13:58:04.651Z,63.35
2018-03-15T14:00:34.115Z,63.37
2018-03-15T14:03:03.501Z,63.47
2018-03-15T14:05:32.806Z,63.71
2018-03-15T14:08:01.841Z,63.85
2018-03-15T14:10:32.317Z,64.16
2018-03-15T14:13:01.752Z,64.32
2018-03-15T14:15:30.842Z,64.61
2018-03-15T14:18:00.313Z,65.10
2018-03-15T14:20:29.765Z,65.41
2018-03-15T14:22:59.445Z,65.38
2018-03-15T14:25:28.853Z,65.55
2018-03-15T14:27:58.731Z,65.18
2018-03-15T14:30:27.771Z,64.72
2018-03-15T14:32:57.131Z,64.20
2018-03-15T14:35:27.074Z,64.22
2018-03-15T14:37:56.168Z,64.34
2018-03-15T14:40:25.214Z,63.92
2018-03-15T14:42:55.092Z,64.10
2018-03-15T14:45:24.422Z,64.24
2018-03-15T14:47:53.826Z,64.56
2018-03-15T14:50:23.197Z,64.53
2018-03-15T14:52:52.810Z,64.25
2018-03-15T14:55:21.866Z,64.52
2018-03-15T14:57:51.198Z,63.80
2018-03-15T15:00:20.934Z,63.49
2018-03-15T15:05:25.439Z,63.82
2018-03-15T15:07:54.730Z,64.28
2018-03-15T15:10:23.779Z,64.55
2018-03-15T15:12:53.752Z,64.81
2018-03-15T15:15:22.866Z,64.90
2018-03-15T15:17:51.909Z,64.51
2018-03-15T15:20:22.698Z,64.47
2018-03-15T15:22:51.853Z,64.26
2018-03-15T15:25:22.068Z,64.18
2018-03-15T15:27:51.159Z,64.38
2018-03-15T15:30:20.713Z,64.48
2018-03-15T15:32:49.747Z,64.52
2018-03-15T15:35:19.216Z,64.92
2018-03-15T15:37:48.260Z,64.91
2018-03-15T15:40:17.317Z,65.02
2018-03-15T15:42:46.400Z,65.01
2018-03-15T15:45:15.425Z,65.08
2018-03-15T15:47:44.906Z,64.78
2018-03-15T15:50:15.235Z,64.89
2018-03-15T15:52:45.630Z,64.96
2018-03-15T15:55:15.276Z,65.07
2018-03-15T15:57:45.318Z,64.90
2018-03-15T16:00:15.183Z,64.53
2018-03-15T16:02:45.502Z,64.69
2018-03-15T16:05:14.666Z,65.04
2018-03-15T16:07:44.218Z,64.71
2018-03-15T16:10:13.622Z,64.81
2018-03-15T16:12:43.010Z,64.69
2018-03-15T16:15:12.221Z,64.78
2018-03-15T16:17:42.267Z,64.64
2018-03-15T16:20:11.314Z,64.57
2018-03-15T16:22:40.928Z,64.93
2018-03-15T16:25:11.053Z,65.07
2018-03-15T16:27:40.203Z,65.38
2018-03-15T16:30:10.182Z,65.44
2018-03-15T16:32:39.209Z,65.50
2018-03-15T16:35:08.248Z,64.84
2018-03-15T16:37:38.270Z,65.12
2018-03-15T16:40:07.683Z,65.22
2018-03-15T16:42:36.698Z,65.56
2018-03-15T16:45:06.060Z,65.74
2018-03-15T16:47:35.253Z,65.80
2018-03-15T16:50:05.380Z,65.59
2018-03-15T16:52:35.652Z,65.16
2018-03-15T16:55:05.387Z,65.06
2018-03-15T16:57:34.850Z,65.04
2018-03-15T17:00:04.004Z,64.83
2018-03-15T17:02:33.403Z,64.48
2018-03-15T17:05:03.114Z,64.60
2018-03-15T17:07:32.364Z,64.81
2018-03-15T17:10:01.963Z,64.72
2018-03-15T17:12:31.207Z,64.73
2018-03-15T17:15:01.214Z,64.50
2018-03-15T17:17:31.115Z,64.59
2018-03-15T17:20:00.324Z,64.85
2018-03-15T17:22:30.617Z,65.01
2018-03-15T17:25:00.220Z,65.19
2018-03-15T17:27:30.932Z,65.34
2018-03-15T17:30:00.170Z,65.44
2018-03-15T17:32:29.284Z,65.28
2018-03-15T17:34:58.654Z,64.97
2018-03-15T17:37:27.971Z,64.87
2018-03-15T17:39:57.034Z,64.96
2018-03-15T17:42:27.787Z,65.20
2018-03-15T17:44:57.194Z,65.16
2018-03-15T17:47:26.364Z,64.98
2018-03-15T17:49:55.601Z,65.13
2018-03-15T17:52:25.312Z,64.92
2018-03-15T17:54:54.369Z,64.95
2018-03-15T17:57:23.418Z,65.12
2018-03-15T17:59:52.493Z,65.05
2018-03-15T18:02:21.749Z,64.53
2018-03-15T18:04:51.930Z,64.43
2018-03-15T18:07:21.090Z,64.29
2018-03-15T18:09:50.159Z,64.58
2018-03-15T18:12:19.212Z,64.79
2018-03-15T18:14:48.264Z,64.68
2018-03-15T18:17:17.500Z,64.40
2018-03-15T18:19:46.913Z,64.40
2018-03-15T18:22:15.976Z,64.55
2018-03-15T18:24:45.318Z,64.39
2018-03-15T18:27:14.429Z,64.60
2018-03-15T18:29:43.755Z,64.81
2018-03-15T18:32:13.123Z,64.81
2018-03-15T18:34:42.154Z,64.73
2018-03-15T18:37:11.183Z,64.64
2018-03-15T18:39:40.526Z,64.29
2018-03-15T18:42:09.819Z,64.34
2018-03-15T18:44:39.614Z,64.51
2018-03-15T18:47:09.111Z,64.45
2018-03-15T18:49:38.588Z,64.13
2018-03-15T18:52:07.726Z,64.00
2018-03-15T18:54:36.848Z,63.77
2018-03-15T18:57:06.357Z,63.81
2018-03-15T18:59:35.406Z,63.67
2018-03-15T19:02:04.584Z,63.69
2018-03-15T19:04:34.070Z,63.74
2018-03-15T19:07:03.158Z,63.55
2018-03-15T19:09:32.199Z,63.47
2018-03-15T19:12:01.228Z,63.27
2018-03-15T19:14:31.329Z,63.56
2018-03-15T19:17:00.925Z,63.86
2018-03-15T19:19:30.306Z,64.18
2018-03-15T19:21:59.342Z,63.68
2018-03-15T19:24:28.800Z,63.44
2018-03-15T19:26:57.955Z,63.33
2018-03-15T19:29:27.185Z,63.33
2018-03-15T19:31:56.674Z,63.39
2018-03-15T19:34:25.850Z,63.49
2018-03-15T19:36:55.256Z,63.59
2018-03-15T19:39:24.758Z,63.83
2018-03-15T19:41:54.709Z,63.63
2018-03-15T19:44:23.800Z,63.58
2018-03-15T19:46:53.163Z,63.67
2018-03-15T19:49:22.294Z,63.41
2018-03-15T19:51:51.519Z,63.76
2018-03-15T19:54:20.563Z,63.69
2018-03-15T19:56:50.388Z,63.59
2018-03-15T19:59:27.872Z,63.44
2018-03-15T20:01:57.225Z,63.17
2018-03-15T20:04:26.704Z,63.15
2018-03-15T20:06:56.100Z,63.05
2018-03-15T20:09:25.158Z,63.03
2018-03-15T20:11:54.605Z,63.25
2018-03-15T20:14:23.651Z,63.27
2018-03-15T20:16:52.687Z,63.50
2018-03-15T20:19:23.135Z,63.11
2018-03-15T20:21:52.449Z,63.06
2018-03-15T20:24:27.096Z,63.21
2018-03-15T20:26:56.144Z,63.32
2018-03-15T20:29:25.168Z,63.34
2018-03-15T20:31:54.246Z,63.41
2018-03-15T20:34:23.282Z,63.38
2018-03-15T20:36:52.302Z,63.31
2018-03-15T20:39:28.689Z,63.40
2018-03-15T20:41:57.764Z,63.56
2018-03-15T20:44:27.537Z,63.98
2018-03-15T20:47:02.653Z,64.40
2018-03-15T20:49:32.269Z,64.79
2018-03-15T20:52:02.186Z,64.75
2018-03-15T20:54:31.503Z,64.86
2018-03-15T20:57:00.601Z,64.79
2018-03-15T20:59:30.098Z,64.76
2018-03-15T21:02:00.230Z,64.74
2018-03-15T21:04:29.264Z,64.81
2018-03-15T21:06:58.386Z,64.83
2018-03-15T21:09:28.986Z,64.83
2018-03-15T21:11:59.373Z,64.94
2018-03-15T21:14:28.686Z,65.07
2018-03-15T21:16:59.932Z,65.12
2018-03-15T21:19:30.339Z,65.01
2018-03-15T21:21:59.853Z,64.93
2018-03-15T21:24:29.303Z,64.93
2018-03-15T21:26:58.834Z,64.89
2018-03-15T21:29:28.610Z,64.82
2018-03-15T21:31:58.700Z,64.97
2018-03-15T21:34:28.268Z,65.09
2018-03-15T21:36:57.331Z,65.25
2018-03-15T21:39:26.376Z,65.16
2018-03-15T21:41:55.413Z,65.14
2018-03-15T21:44:24.850Z,64.98
2018-03-15T21:46:54.763Z,64.96
2018-03-15T21:49:23.803Z,65.03
2018-03-15T21:51:53.342Z,65.25
2018-03-15T21:54:22.462Z,65.27
2018-03-15T21:56:51.715Z,65.31
2018-03-15T21:59:21.343Z,65.26
2018-03-15T22:01:50.508Z,65.33
2018-03-15T22:04:19.600Z,65.54
2018-03-15T22:06:49.406Z,65.64
2018-03-15T22:09:18.845Z,65.76
2018-03-15T22:11:48.171Z,65.94
2018-03-15T22:14:18.150Z,66.05
2018-03-15T22:16:47.706Z,66.05
2018-03-15T22:19:17.598Z,66.15
2018-03-15T22:21:47.042Z,66.17
2018-03-15T22:24:17.165Z,66.26
2018-03-15T22:26:47.500Z,66.53
2018-03-15T22:29:17.312Z,66.44
2018-03-15T22:31:46.480Z,66.04
2018-03-15T22:34:16.200Z,64.91
2018-03-15T22:36:45.403Z,64.53
2018-03-15T22:39:14.529Z,64.17
2018-03-15T22:41:44.154Z,64.31
2018-03-15T22:44:13.280Z,64.30
2018-03-15T22:46:43.043Z,64.16
2018-03-15T22:49:12.105Z,63.86
2018-03-15T22:51:42.052Z,63.68
2018-03-15T22:54:12.600Z,63.03
2018-03-15T22:56:41.885Z,63.16
2018-03-15T22:59:11.139Z,63.16
2018-03-15T23:01:40.433Z,63.30
2018-03-15T23:04:09.851Z,63.29
2018-03-15T23:06:38.917Z,63.12
2018-03-15T23:09:08.955Z,63.13
2018-03-15T23:11:37.984Z,63.11
2018-03-15T23:14:07.734Z,63.07
2018-03-15T23:16:36.931Z,63.15
2018-03-15T23:19:06.062Z,62.88
2018-03-15T23:21:35.173Z,62.58
2018-03-15T23:24:04.465Z,62.82
2018-03-15T23:26:34.025Z,62.88
2018-03-15T23:29:03.520Z,62.76
2018-03-15T23:31:32.748Z,62.75
2018-03-15T23:34:02.278Z,62.96
2018-03-15T23:36:31.792Z,63.02
2018-03-15T23:39:01.472Z,63.17
2018-03-15T23:41:30.627Z,62.84
2018-03-15T23:44:00.520Z,62.97
2018-03-15T23:46:31.856Z,63.16
2018-03-15T23:49:01.994Z,63.10
2018-03-15T23:51:31.702Z,63.08
2018-03-15T23:54:01.360Z,62.98
2018-03-15T23:56:30.426Z,63.19
2018-03-15T23:58:59.538Z,63.18
